Flight Track Log - Related Links

Times and Time Zones

All times are in EDT time to prevent confusion due to time zone crossing. See the EJA831 flight status page for this flight to view local times or setup timezone preferences in your user account.

Time Position Orientation Groundspeed Altitude Reporting Facility
EDT Latitude Longitude Course Direction KTS MPH feet Rate Location/Type
Thu 11:49:04 AM 41.8167 -87.7500 270° West 200 230 2,500  Level Chicago TRACON
Thu 11:50:05 AM 41.8167 -87.8333 270° West 265 305 3,100 2,132 Climbing Chicago TRACON
Thu 11:51:05 AM 41.7833 -87.9167 242° Southwest 271 312 6,800 3,520 Climbing Chicago TRACON
Thu 11:51:20 AM 41.7808 -87.9383 261° West 267 307 7,500 3,506 Climbing Chicago Center
Thu 11:52:22 AM 41.8017 -88.0250 288° West 252 290 11,300 2,274 Climbing Chicago Center
Thu 11:53:24 AM 41.8094 -88.1608 274° West 304 350 12,200 823 Climbing Chicago Center
Thu 11:54:26 AM 41.8167 -88.2800 275° West 318 366 13,000 384 Climbing Chicago Center
Thu 11:55:29 AM 41.8300 -88.3975 279° West 320 368 13,000 384 Level Chicago Center
Thu 11:56:31 AM 41.8581 -88.5072 289° West 314 361 13,800 1,306 Climbing Chicago Center
Thu 11:57:33 AM 41.8928 -88.6414 289° West 320 368 15,700 1,887 Climbing Chicago Center
Thu 11:58:35 AM 41.9225 -88.7553 289° West 325 374 17,700 1,935 Climbing Chicago Center
Thu 11:59:37 AM 41.9508 -88.8714 288° West 329 379 19,700 1,920 Climbing Chicago Center
Thu 12:00:40 PM 41.9800 -88.9842 289° West 324 373 21,700 1,104 Climbing Chicago Center
Thu 12:01:42 PM 42.0111 -89.1039 289° West 338 389 22,000 145 Climbing Chicago Center
Thu 12:02:44 PM 42.0497 -89.2533 289° West 355 409 22,000  Level Chicago Center
Thu 12:03:46 PM 42.0769 -89.3744 287° West 347 399 22,000  Level Chicago Center
Thu 12:04:48 PM 42.1086 -89.4967 289° West 346 398 22,000  Level Chicago Center
Thu 12:05:50 PM 42.1400 -89.6214 289° West 349 402 22,000  Level Chicago Center
Thu 12:06:52 PM 42.1753 -89.7658 288° West 349 402 22,000  Level Chicago Center
Thu 12:07:54 PM 42.2053 -89.8883 288° West 345 397 22,000  Level Chicago Center
Thu 12:08:56 PM 42.2364 -90.0167 288° West 347 399 22,000  Level Chicago Center
Thu 12:09:58 PM 42.2661 -90.1389 288° West 346 398 22,000  Level Chicago Center
Thu 12:11:00 PM 42.2958 -90.2633 288° West 349 402 22,000  Level Chicago Center
Thu 12:12:03 PM 42.3258 -90.3875 288° West 350 403 22,000  Level Chicago Center
Thu 12:13:05 PM 42.3539 -90.5100 287° West 345 397 22,000  Level Chicago Center
Thu 12:14:07 PM 42.3911 -90.6594 289° West 351 404 22,000  Level Chicago Center
Thu 12:15:09 PM 42.4478 -90.7606 307° West 343 395 22,000  Level Chicago Center
Thu 12:16:11 PM 42.5181 -90.8444 319° Northwest 344 396 22,000  Level Chicago Center
Thu 12:17:13 PM 42.5911 -90.9264 320° Northwest 344 396 22,000  Level Chicago Center
Thu 12:18:15 PM 42.6628 -91.0106 319° Northwest 344 396 22,000  Level Chicago Center
Thu 12:19:17 PM 42.7497 -91.1114 320° Northwest 347 399 22,000  Level Chicago Center
Thu 12:20:19 PM 42.8219 -91.1958 319° Northwest 348 400 22,000  Level Chicago Center
Thu 12:21:21 PM 42.8928 -91.2794 319° Northwest 343 395 22,000  Level Chicago Center
Thu 12:22:24 PM 42.9786 -91.3811 319° Northwest 346 398 22,000  Level Chicago Center
Thu 12:23:26 PM 43.0506 -91.4656 319° Northwest 347 399 22,000  Level Chicago Center
Thu 12:24:20 PM 43.1072 -91.5322 319° Northwest 345 397 22,000 -103 Level Minneapolis Center
Thu 12:25:22 PM 43.1936 -91.6344 319° Northwest 346 398 21,800 -968 Descending Minneapolis Center
Thu 12:26:24 PM 43.2636 -91.7186 319° Northwest 342 394 20,000 -1,742 Descending Minneapolis Center
Thu 12:27:26 PM 43.3328 -91.8031 318° Northwest 338 389 18,200 -1,742 Descending Minneapolis Center
Thu 12:28:28 PM 43.4017 -91.8858 319° Northwest 335 386 16,400 -1,645 Descending Minneapolis Center
Thu 12:29:30 PM 43.4686 -91.9642 320° Northwest 324 373 14,800 -1,839 Descending Minneapolis Center
Thu 12:30:32 PM 43.5456 -92.0586 318° Northwest 314 361 12,600 -2,081 Descending Minneapolis Center
Thu 12:31:34 PM 43.5911 -92.1525 304° West 298 343 10,500 -2,160 Descending Minneapolis Center
Thu 12:32:37 PM 43.6017 -92.2728 277° West 283 326 8,100 -2,016 Descending Minneapolis Center
Thu 12:33:39 PM 43.6131 -92.3764 279° West 277 319 6,300 -1,500 Descending Minneapolis Center
Thu 12:34:41 PM 43.6269 -92.4839 280° West 265 305 5,000 -629 Descending Minneapolis Center
Thu 12:35:43 PM 43.6464 -92.5808 286° West 265 305 5,000  Level Minneapolis Center
Thu 12:36:45 PM 43.7017 -92.6408 322° Northwest 260 299 5,000 -435 Level Minneapolis Center
Thu 12:37:47 PM 43.7614 -92.5986 27° Northeast 248 285 4,100 -1,065 Descending Minneapolis Center
Thu 12:38:49 PM 43.8225 -92.5569 26° Northeast 230 265 2,800 -1,065 Descending Minneapolis Center
Thu 12:39:51 PM 43.8661 -92.5267 27° Northeast 176 203 1,900 -726 Descending Minneapolis Center
Thu 12:40:53 PM 43.8972 -92.5058 26° Northeast 123 142 1,300 -339 Descending Minneapolis Center
Thu 12:41:55 PM 43.9242 -92.4872 26° Northeast 117 135 1,200 -97 Descending Minneapolis Center
Thu 12:43:00 PM 43.9083 -92.5000 154° Southeast  Level Estimated

Login

Don't have an account? Register now (free) for customized features, flight alerts, and more!